createdAt,value
2018-05-10T00:01:34.663Z,100438.48
2018-05-10T00:04:03.154Z,100439.33
2018-05-10T00:06:31.663Z,100434.77
2018-05-10T00:09:00.066Z,100434.52
2018-05-10T00:11:28.440Z,100428.11
2018-05-10T00:13:56.772Z,100429.17
2018-05-10T00:16:25.114Z,100424.24
2018-05-10T00:18:53.463Z,100426.80
2018-05-10T00:21:21.837Z,100427.63
2018-05-10T00:23:50.959Z,100427.52
2018-05-10T00:26:20.077Z,100421.61
2018-05-10T00:28:48.405Z,100414.42
2018-05-10T00:31:16.954Z,100411.88
2018-05-10T00:33:45.282Z,100415.09
2018-05-10T00:36:13.595Z,100426.75
2018-05-10T00:38:41.944Z,100411.16
2018-05-10T00:41:10.260Z,100417.13
2018-05-10T00:43:39.360Z,100406.52
2018-05-10T00:46:08.483Z,100412.27
2018-05-10T00:48:36.811Z,100409.92
2018-05-10T00:51:05.222Z,100411.99
2018-05-10T00:53:33.892Z,100411.23
2018-05-10T00:56:02.218Z,100411.48
2018-05-10T00:58:30.558Z,100412.39
2018-05-10T01:00:59.672Z,100401.27
2018-05-10T01:03:27.999Z,100407.27
2018-05-10T01:05:56.309Z,100404.09
2018-05-10T01:08:24.659Z,100408.72
2018-05-10T01:10:52.981Z,100407.31
2018-05-10T01:13:21.287Z,100405.25
2018-05-10T01:15:50.032Z,100413.70
2018-05-10T01:18:19.129Z,100412.02
2018-05-10T01:20:47.434Z,100397.91
2018-05-10T01:23:15.786Z,100404.24
2018-05-10T01:25:44.908Z,100408.12
2018-05-10T01:28:13.226Z,100396.39
2018-05-10T01:30:41.561Z,100395.85
2018-05-10T01:33:09.877Z,100394.91
2018-05-10T01:38:48.659Z,100388.36
2018-05-10T01:41:17.766Z,100394.59
2018-05-10T01:43:46.851Z,100386.81
2018-05-10T01:46:15.923Z,100389.46
2018-05-10T01:48:44.275Z,100385.67
2018-05-10T01:51:12.584Z,100387.08
2018-05-10T01:53:40.888Z,100382.61
2018-05-10T01:56:10.169Z,100392.20
2018-05-10T01:58:38.503Z,100381.97
2018-05-10T02:01:06.818Z,100391.42
2018-05-10T02:03:35.186Z,100378.45
2018-05-10T02:06:03.503Z,100381.90
2018-05-10T02:08:32.643Z,100379.58
2018-05-10T02:11:01.008Z,100380.36
2018-05-10T02:13:29.355Z,100374.24
2018-05-10T02:15:57.672Z,100370.23
2018-05-10T02:18:26.304Z,100374.73
2018-05-10T02:20:54.630Z,100371.09
2018-05-10T02:23:23.027Z,100367.84
2018-05-10T02:25:51.374Z,100368.27
2018-05-10T02:28:19.700Z,100361.24
2018-05-10T02:30:48.001Z,100367.66
2018-05-10T02:33:16.352Z,100365.74
2018-05-10T02:35:44.714Z,100363.16
2018-05-10T02:38:13.071Z,100368.99
2018-05-10T02:40:41.666Z,100370.28
2018-05-10T02:43:09.991Z,100359.69
2018-05-10T02:45:39.096Z,100359.98
2018-05-10T02:48:08.201Z,100358.38
2018-05-10T02:50:37.305Z,100357.89
2018-05-10T02:53:06.393Z,100358.97
2018-05-10T02:55:35.494Z,100355.27
2018-05-10T02:58:04.639Z,100363.58
2018-05-10T03:00:32.931Z,100359.92
2018-05-10T03:03:01.812Z,100360.03
2018-05-10T03:05:30.141Z,100361.95
2018-05-10T03:07:59.228Z,100361.89
2018-05-10T03:10:27.566Z,100361.58
2018-05-10T03:12:55.881Z,100365.40
2018-05-10T03:15:24.951Z,100359.28
2018-05-10T03:17:53.276Z,100357.94
2018-05-10T03:20:22.351Z,100359.97
2018-05-10T03:22:50.668Z,100354.16
2018-05-10T03:25:19.619Z,100354.16
2018-05-10T03:27:47.947Z,100351.09
2018-05-10T03:30:16.285Z,100350.06
2018-05-10T03:32:45.392Z,100345.94
2018-05-10T03:35:14.466Z,100350.40
2018-05-10T03:37:42.760Z,100350.73
2018-05-10T03:40:11.849Z,100346.05
2018-05-10T03:42:40.911Z,100349.17
2018-05-10T03:45:09.237Z,100345.70
2018-05-10T03:47:38.694Z,100351.16
2018-05-10T03:50:07.037Z,100343.40
2018-05-10T03:52:35.352Z,100349.08
2018-05-10T03:55:04.506Z,100344.60
2018-05-10T03:57:32.828Z,100342.50
2018-05-10T04:00:01.155Z,100348.08
2018-05-10T04:05:55.613Z,100352.63
2018-05-10T04:08:41.358Z,100355.25
2018-05-10T04:11:29.151Z,100360.59
2018-05-10T04:13:57.509Z,100363.66
2018-05-10T04:16:26.613Z,100369.22
2018-05-10T04:18:54.918Z,100365.88
2018-05-10T04:21:23.452Z,100360.62
2018-05-10T04:23:51.808Z,100357.99
2018-05-10T04:26:20.129Z,100360.88
2018-05-10T04:28:48.762Z,100357.62
2018-05-10T04:31:17.090Z,100353.87
2018-05-10T04:33:45.444Z,100351.97
2018-05-10T04:36:14.547Z,100343.72
2018-05-10T04:38:42.861Z,100350.12
2018-05-10T04:41:11.214Z,100349.16
2018-05-10T04:43:39.867Z,100355.08
2018-05-10T04:46:08.941Z,100366.91
2018-05-10T04:48:38.035Z,100361.73
2018-05-10T04:51:06.358Z,100362.84
2018-05-10T04:53:34.670Z,100363.63
2018-05-10T04:56:02.993Z,100360.03
2018-05-10T04:58:32.084Z,100354.84
2018-05-10T05:01:01.184Z,100360.83
2018-05-10T05:03:30.289Z,100363.46
2018-05-10T05:05:59.653Z,100370.81
2018-05-10T05:08:28.053Z,100367.53
2018-05-10T05:10:57.144Z,100359.92
2018-05-10T05:13:26.231Z,100357.94
2018-05-10T05:15:54.563Z,100356.84
2018-05-10T05:18:22.886Z,100355.06
2018-05-10T05:20:51.219Z,100360.36
2018-05-10T05:23:19.542Z,100357.80
2018-05-10T05:25:47.865Z,100362.51
2018-05-10T05:28:16.528Z,100363.59
2018-05-10T05:30:45.883Z,100358.02
2018-05-10T05:33:14.210Z,100363.63
2018-05-10T05:35:42.567Z,100368.91
2018-05-10T05:38:10.913Z,100361.85
2018-05-10T05:40:39.222Z,100365.33
2018-05-10T05:43:07.563Z,100364.81
2018-05-10T05:45:35.906Z,100375.07
2018-05-10T05:48:04.986Z,100371.91
2018-05-10T05:50:33.581Z,100368.31
2018-05-10T05:53:01.899Z,100367.27
2018-05-10T05:55:30.263Z,100372.02
2018-05-10T05:57:58.614Z,100371.80
2018-05-10T06:00:27.705Z,100368.00
2018-05-10T06:02:56.065Z,100377.02
2018-05-10T06:05:24.424Z,100386.23
2018-05-10T06:07:52.738Z,100383.36
2018-05-10T06:10:21.039Z,100383.95
2018-05-10T06:12:49.699Z,100373.81
2018-05-10T06:15:18.027Z,100377.84
2018-05-10T06:17:46.354Z,100373.16
2018-05-10T06:20:14.696Z,100379.08
2018-05-10T06:22:43.043Z,100374.09
2018-05-10T06:25:11.503Z,100376.19
2018-05-10T06:27:39.747Z,100381.45
2018-05-10T06:30:08.099Z,100381.66
2018-05-10T06:32:36.423Z,100375.33
2018-05-10T06:35:04.863Z,100369.07
2018-05-10T06:37:33.193Z,100368.46
2018-05-10T06:40:02.300Z,100373.26
2018-05-10T06:42:31.450Z,100375.15
2018-05-10T06:44:59.780Z,100367.76
2018-05-10T06:47:28.135Z,100374.14
2018-05-10T06:49:56.488Z,100381.58
2018-05-10T06:52:24.844Z,100385.19
2018-05-10T06:54:53.178Z,100389.57
2018-05-10T06:57:22.795Z,100387.38
2018-05-10T06:59:51.122Z,100391.81
2018-05-10T07:02:19.700Z,100386.30
2018-05-10T07:04:48.036Z,100388.38
2018-05-10T07:07:16.383Z,100385.22
2018-05-10T07:09:44.875Z,100390.36
2018-05-10T07:12:13.114Z,100385.81
2018-05-10T07:14:41.424Z,100395.17
2018-05-10T07:17:09.750Z,100397.05
2018-05-10T07:19:38.501Z,100399.48
2018-05-10T07:22:06.815Z,100403.07
2018-05-10T07:24:35.138Z,100397.05
2018-05-10T07:27:03.495Z,100394.91
2018-05-10T07:29:31.834Z,100400.14
2018-05-10T07:32:00.175Z,100399.70
2018-05-10T07:34:28.556Z,100392.42
2018-05-10T07:36:56.879Z,100393.22
2018-05-10T07:39:25.219Z,100392.70
2018-05-10T07:41:53.611Z,100394.42
2018-05-10T07:44:21.947Z,100396.80
2018-05-10T07:46:50.256Z,100387.80
2018-05-10T07:49:18.598Z,100391.50
2018-05-10T07:51:46.912Z,100390.47
2018-05-10T07:54:15.246Z,100391.40
2018-05-10T07:56:43.618Z,100395.17
2018-05-10T07:59:11.962Z,100397.08
2018-05-10T08:01:41.088Z,100393.19
2018-05-10T08:04:09.961Z,100393.63
2018-05-10T08:06:39.069Z,100381.30
2018-05-10T08:09:07.430Z,100388.66
2018-05-10T08:11:35.870Z,100391.64
2018-05-10T08:14:04.212Z,100397.23
2018-05-10T08:16:33.311Z,100398.48
2018-05-10T08:19:02.419Z,100391.91
2018-05-10T08:21:31.487Z,100397.75
2018-05-10T08:24:00.563Z,100399.18
2018-05-10T08:26:29.360Z,100408.50
2018-05-10T08:28:57.717Z,100405.99
2018-05-10T08:31:26.078Z,100403.48
2018-05-10T08:33:54.595Z,100401.30
2018-05-10T08:36:22.901Z,100403.49
2018-05-10T08:38:52.001Z,100407.22
2018-05-10T08:41:20.372Z,100402.10
2018-05-10T08:43:48.714Z,100399.05
2018-05-10T08:46:17.032Z,100397.11
2018-05-10T08:48:45.918Z,100401.34
2018-05-10T08:51:14.232Z,100395.64
2018-05-10T08:53:42.596Z,100405.59
2018-05-10T08:56:10.936Z,100403.45
2018-05-10T08:58:39.273Z,100409.74
2018-05-10T09:01:07.587Z,100402.94
2018-05-10T09:03:35.943Z,100404.88
2018-05-10T09:06:10.200Z,100406.75
2018-05-10T09:08:39.138Z,100409.77
2018-05-10T09:11:07.476Z,100403.02
2018-05-10T09:13:35.827Z,100397.74
2018-05-10T09:16:04.194Z,100400.16
2018-05-10T09:18:32.504Z,100404.59
2018-05-10T09:21:01.632Z,100398.22
2018-05-10T09:23:30.016Z,100395.14
2018-05-10T09:25:58.398Z,100395.66
2018-05-10T09:28:26.724Z,100405.34
2018-05-10T09:30:55.645Z,100403.34
2018-05-10T09:33:23.959Z,100396.37
2018-05-10T09:35:52.310Z,100399.05
2018-05-10T09:38:21.457Z,100404.56
2018-05-10T09:40:49.810Z,100397.62
2018-05-10T09:43:18.167Z,100402.30
2018-05-10T09:45:47.302Z,100401.62
2018-05-10T09:48:15.611Z,100408.80
2018-05-10T09:50:43.956Z,100405.88
2018-05-10T09:53:12.493Z,100402.27
2018-05-10T09:55:41.595Z,100404.11
2018-05-10T09:58:10.667Z,100409.36
2018-05-10T10:00:39.789Z,100414.72
2018-05-10T10:03:08.876Z,100406.11
2018-05-10T10:05:37.949Z,100403.36
2018-05-10T10:08:06.314Z,100412.95
2018-05-10T10:10:34.679Z,100411.41
2018-05-10T10:13:03.002Z,100407.88
2018-05-10T10:15:32.613Z,100413.31
2018-05-10T10:18:00.942Z,100412.33
2018-05-10T10:20:29.311Z,100412.36
2018-05-10T10:22:57.671Z,100413.66
2018-05-10T10:25:25.991Z,100413.53
2018-05-10T10:27:55.097Z,100415.12
2018-05-10T10:30:23.469Z,100412.75
2018-05-10T10:32:51.881Z,100401.57
2018-05-10T10:35:20.993Z,100412.59
2018-05-10T10:37:50.180Z,100419.13
2018-05-10T10:40:18.510Z,100411.30
2018-05-10T10:42:46.927Z,100407.78
2018-05-10T10:45:16.047Z,100398.42
2018-05-10T10:47:45.122Z,100414.17
2018-05-10T10:50:14.266Z,100410.72
2018-05-10T10:52:42.623Z,100404.99
2018-05-10T10:55:10.955Z,100406.13
2018-05-10T10:57:39.268Z,100408.17
2018-05-10T11:00:07.955Z,100401.29
2018-05-10T11:02:36.297Z,100401.31
2018-05-10T11:05:04.627Z,100397.97
2018-05-10T11:07:33.031Z,100407.46
2018-05-10T11:10:01.359Z,100411.05
2018-05-10T11:12:29.699Z,100408.24
2018-05-10T11:14:58.129Z,100405.92
2018-05-10T11:17:27.221Z,100400.48
2018-05-10T11:19:56.299Z,100405.09
2018-05-10T11:22:24.863Z,100399.23
2018-05-10T11:24:53.935Z,100399.56
2018-05-10T11:27:22.343Z,100388.04
2018-05-10T11:29:51.401Z,100396.53
2018-05-10T11:32:19.887Z,100390.95
2018-05-10T11:34:48.230Z,100396.95
2018-05-10T11:37:17.335Z,100403.84
2018-05-10T11:39:46.420Z,100402.86
2018-05-10T11:42:15.516Z,100401.39
2018-05-10T11:44:44.902Z,100398.52
2018-05-10T11:47:13.212Z,100399.45
2018-05-10T11:49:41.567Z,100413.41
2018-05-10T11:52:09.938Z,100414.80
2018-05-10T11:54:38.254Z,100407.68
2018-05-10T11:57:06.566Z,100405.50
2018-05-10T11:59:34.933Z,100409.64
2018-05-10T12:02:03.287Z,100407.28
2018-05-10T12:04:32.479Z,100397.41
2018-05-10T12:07:01.911Z,100408.63
2018-05-10T12:09:30.232Z,100407.70
2018-05-10T12:11:58.558Z,100402.37
2018-05-10T12:14:26.927Z,100406.34
2018-05-10T12:16:55.292Z,100406.09
2018-05-10T12:19:24.423Z,100401.73
2018-05-10T12:21:52.792Z,100401.34
2018-05-10T12:24:21.121Z,100410.89
2018-05-10T12:26:49.451Z,100420.05
2018-05-10T12:29:18.045Z,100427.16
2018-05-10T12:31:46.376Z,100423.32
2018-05-10T12:34:14.675Z,100411.02
2018-05-10T12:36:43.775Z,100409.82
2018-05-10T12:39:12.854Z,100401.38
2018-05-10T12:41:42.028Z,100399.67
2018-05-10T12:44:11.125Z,100392.13
2018-05-10T12:46:39.458Z,100398.70
2018-05-10T12:49:07.797Z,100385.53
2018-05-10T12:51:36.616Z,100381.31
2018-05-10T12:54:04.958Z,100374.80
2018-05-10T12:56:33.865Z,100362.91
2018-05-10T12:59:03.008Z,100362.39
2018-05-10T13:01:31.391Z,100356.81
2018-05-10T13:03:59.718Z,100365.41
2018-05-10T13:06:28.079Z,100376.77
2018-05-10T13:08:56.428Z,100387.48
2018-05-10T13:11:24.749Z,100395.16
2018-05-10T13:13:53.534Z,100402.25
2018-05-10T13:16:21.869Z,100445.23
2018-05-10T13:18:50.211Z,100452.12
2018-05-10T13:21:19.342Z,100459.14
2018-05-10T13:23:47.672Z,100452.51
2018-05-10T13:26:16.032Z,100463.67
2018-05-10T13:28:44.366Z,100473.69
2018-05-10T13:31:12.702Z,100480.04
2018-05-10T13:33:41.026Z,100493.70
2018-05-10T13:36:09.703Z,100506.98
2018-05-10T13:38:38.032Z,100520.53
2018-05-10T13:41:07.138Z,100541.82
2018-05-10T13:43:35.496Z,100560.65
2018-05-10T13:46:03.804Z,100578.94
2018-05-10T13:48:32.147Z,100606.80
2018-05-10T13:51:00.487Z,100625.28
2018-05-10T13:53:29.582Z,100648.14
2018-05-10T13:55:58.657Z,100595.89
2018-05-10T13:58:27.443Z,100604.62
2018-05-10T14:00:55.778Z,100613.64
2018-05-10T14:03:24.138Z,100620.56
2018-05-10T14:05:52.477Z,100607.16
2018-05-10T14:08:20.836Z,100609.69
2018-05-10T14:10:49.289Z,100639.41
2018-05-10T14:13:17.593Z,100647.47
2018-05-10T14:15:45.972Z,100655.55
2018-05-10T14:18:14.320Z,100657.66
2018-05-10T14:20:43.392Z,100667.91
2018-05-10T14:23:11.762Z,100665.88
2018-05-10T14:25:40.855Z,100666.05
2018-05-10T14:28:09.975Z,100665.81
2018-05-10T14:30:39.062Z,100656.38
2018-05-10T14:33:08.172Z,100667.07
2018-05-10T14:35:36.522Z,100685.08
2018-05-10T14:38:04.877Z,100686.06
2018-05-10T14:40:33.195Z,100685.91
2018-05-10T14:43:02.514Z,100695.22
2018-05-10T14:45:30.826Z,100691.78
2018-05-10T14:47:59.171Z,100700.90
2018-05-10T14:50:27.538Z,100699.50
2018-05-10T14:52:56.653Z,100716.74
2018-05-10T14:55:25.004Z,100718.30
2018-05-10T14:57:53.376Z,100735.29
2018-05-10T15:00:22.464Z,100752.17
2018-05-10T15:02:50.788Z,100750.31
2018-05-10T15:05:19.391Z,100753.53
2018-05-10T15:07:47.723Z,100748.73
2018-05-10T15:10:16.823Z,100744.85
2018-05-10T15:12:45.198Z,100742.00
2018-05-10T15:15:13.528Z,100746.33
2018-05-10T15:17:42.654Z,100751.48
2018-05-10T15:20:11.023Z,100754.51
2018-05-10T15:22:39.340Z,100754.58
2018-05-10T15:25:07.670Z,100761.47
2018-05-10T15:27:36.211Z,100769.43
2018-05-10T15:30:04.554Z,100772.64
2018-05-10T15:32:32.947Z,100784.08
2018-05-10T15:35:01.303Z,100794.25
2018-05-10T15:37:29.617Z,100806.86
2018-05-10T15:39:57.952Z,100819.31
2018-05-10T15:42:26.330Z,100830.84
2018-05-10T15:44:54.655Z,100841.62
2018-05-10T15:47:23.006Z,100852.36
2018-05-10T15:49:52.007Z,100855.97
2018-05-10T15:52:20.340Z,100862.19
2018-05-10T15:54:48.653Z,100858.74
2018-05-10T15:57:17.027Z,100869.83
2018-05-10T15:59:45.325Z,100873.16
2018-05-10T16:02:13.636Z,100887.78
2018-05-10T16:04:41.978Z,100887.52
2018-05-10T16:07:11.077Z,100899.81
2018-05-10T16:09:40.167Z,100904.94
2018-05-10T16:12:09.501Z,100909.70
2018-05-10T16:14:37.860Z,100920.37
2018-05-10T16:17:06.184Z,100924.20
2018-05-10T16:19:34.542Z,100924.86
2018-05-10T16:22:02.875Z,100915.17
2018-05-10T16:24:31.240Z,100921.52
2018-05-10T16:26:59.581Z,100929.47
2018-05-10T16:29:27.894Z,100930.16
2018-05-10T16:31:56.214Z,100925.88
2018-05-10T16:34:24.990Z,100939.11
2018-05-10T16:36:54.093Z,100936.91
2018-05-10T16:39:23.279Z,100931.56
2018-05-10T16:41:51.568Z,100938.33
2018-05-10T16:44:20.656Z,100935.11
2018-05-10T16:46:48.962Z,100939.16
2018-05-10T16:49:17.310Z,100946.98
2018-05-10T16:51:45.687Z,100952.66
2018-05-10T16:54:14.013Z,100956.25
2018-05-10T16:56:42.854Z,100969.64
2018-05-10T16:59:11.181Z,100981.89
2018-05-10T17:01:39.511Z,100996.53
2018-05-10T17:04:07.843Z,101009.23
2018-05-10T17:06:36.166Z,101020.85
2018-05-10T17:09:04.523Z,101031.06
2018-05-10T17:11:33.643Z,101037.34
2018-05-10T17:14:01.977Z,101049.63
2018-05-10T17:16:30.326Z,101062.26
2018-05-10T17:18:58.978Z,101072.60
2018-05-10T17:21:27.312Z,101080.13
2018-05-10T17:23:55.656Z,101097.06
2018-05-10T17:26:24.830Z,101112.82
2018-05-10T17:28:53.148Z,101119.66
2018-05-10T17:31:21.479Z,101134.97
2018-05-10T17:33:49.831Z,101136.06
2018-05-10T17:36:18.145Z,101140.75
2018-05-10T17:38:46.471Z,101145.01
2018-05-10T17:41:15.116Z,101154.81
2018-05-10T17:43:43.457Z,101157.67
2018-05-10T17:46:11.772Z,101168.31
2018-05-10T17:48:40.101Z,101164.95
2018-05-10T17:51:08.445Z,101168.33
2018-05-10T17:53:36.788Z,101171.30
2018-05-10T17:56:05.146Z,101179.30
2018-05-10T17:58:33.471Z,101174.70
2018-05-10T18:01:01.874Z,101185.16
2018-05-10T18:03:30.446Z,101184.28
2018-05-10T18:05:58.778Z,101192.31
2018-05-10T18:08:27.122Z,101187.66
2018-05-10T18:10:55.479Z,101186.06
2018-05-10T18:13:23.809Z,101191.06
2018-05-10T18:15:52.122Z,101193.50
2018-05-10T18:18:20.478Z,101196.36
2018-05-10T18:20:48.842Z,101195.41
2018-05-10T18:23:17.323Z,101210.33
2018-05-10T18:25:46.785Z,101209.69
2018-05-10T18:28:15.866Z,101202.83
2018-05-10T18:30:44.172Z,101201.88
2018-05-10T18:33:12.534Z,101203.59
2018-05-10T18:35:41.651Z,101202.63
2018-05-10T18:38:10.054Z,101210.83
2018-05-10T18:40:38.385Z,101206.72
2018-05-10T18:43:07.449Z,101211.16
2018-05-10T18:45:35.807Z,101222.45
2018-05-10T18:48:04.293Z,101225.75
2018-05-10T18:50:32.588Z,101228.09
2018-05-10T18:53:00.944Z,101238.73
2018-05-10T18:55:29.295Z,101238.89
2018-05-10T18:57:58.376Z,101241.71
2018-05-10T19:00:27.483Z,101243.95
2018-05-10T19:02:55.844Z,101254.83
2018-05-10T19:05:24.955Z,101253.02
2018-05-10T19:07:53.312Z,101256.22
2018-05-10T19:10:21.890Z,101260.69
2018-05-10T19:12:50.215Z,101252.89
2018-05-10T19:15:18.666Z,101261.66
2018-05-10T19:17:46.924Z,101265.40
2018-05-10T19:20:15.290Z,101266.52
2018-05-10T19:22:43.599Z,101269.98
2018-05-10T19:25:11.933Z,101279.73
2018-05-10T19:27:40.245Z,101284.05
2018-05-10T19:30:08.622Z,101286.08
2018-05-10T19:32:37.466Z,101298.75
2018-05-10T19:35:05.783Z,101302.30
2018-05-10T19:37:34.137Z,101314.16
2018-05-10T19:40:02.490Z,101323.58
2018-05-10T19:42:30.809Z,101330.69
2018-05-10T19:44:59.127Z,101333.75
2018-05-10T19:47:28.266Z,101332.22
2018-05-10T19:49:56.624Z,101340.08
2018-05-10T19:52:24.941Z,101336.80
2018-05-10T19:54:53.810Z,101346.19
2018-05-10T19:57:22.170Z,101349.52
2018-05-10T19:59:50.500Z,101354.19
2018-05-10T20:02:19.075Z,101349.25
2018-05-10T20:04:47.395Z,101355.75
2018-05-10T20:07:16.490Z,101352.52
2018-05-10T20:09:45.626Z,101351.83
2018-05-10T20:12:13.984Z,101356.77
2018-05-10T20:14:42.335Z,101352.68
2018-05-10T20:17:11.632Z,101359.18
2018-05-10T20:19:39.958Z,101367.20
2018-05-10T20:22:08.267Z,101363.57
2018-05-10T20:24:36.672Z,101369.08
2018-05-10T20:27:04.987Z,101372.85
2018-05-10T20:29:33.293Z,101374.44
2018-05-10T20:32:01.637Z,101371.67
2018-05-10T20:34:29.979Z,101373.99
2018-05-10T20:36:58.326Z,101375.42
2018-05-10T20:39:26.737Z,101375.05
2018-05-10T20:41:55.040Z,101377.13
2018-05-10T20:44:24.157Z,101374.84
2018-05-10T20:46:52.515Z,101381.66
2018-05-10T20:49:20.907Z,101386.76
2018-05-10T20:51:49.295Z,101393.41
2018-05-10T20:54:17.648Z,101392.13
2018-05-10T20:56:46.764Z,101395.67
2018-05-10T20:59:15.085Z,101406.42
2018-05-10T21:01:43.794Z,101404.37
2018-05-10T21:04:12.125Z,101403.41
2018-05-10T21:06:40.443Z,101412.11
2018-05-10T21:09:08.804Z,101406.79
2018-05-10T21:11:37.129Z,101406.21
2018-05-10T21:14:06.231Z,101406.02
2018-05-10T21:16:34.728Z,101405.31
2018-05-10T21:19:02.968Z,101409.52
2018-05-10T21:21:31.326Z,101417.01
2018-05-10T21:23:59.937Z,101411.85
2018-05-10T21:26:29.048Z,101410.84
2018-05-10T21:28:57.353Z,101411.30
2018-05-10T21:31:25.690Z,101416.06
2018-05-10T21:33:54.868Z,101422.66
2018-05-10T21:36:23.095Z,101436.39
2018-05-10T21:38:51.474Z,101444.27
2018-05-10T21:41:19.815Z,101447.66
2018-05-10T21:43:48.165Z,101457.53
2018-05-10T21:46:16.835Z,101460.17
2018-05-10T21:48:45.139Z,101459.61
2018-05-10T21:51:13.463Z,101464.09
2018-05-10T21:53:41.965Z,101461.48
2018-05-10T21:56:10.261Z,101465.20
2018-05-10T21:58:38.636Z,101475.78
2018-05-10T22:01:06.998Z,101473.56
2018-05-10T22:03:35.336Z,101477.10
2018-05-10T22:06:04.429Z,101484.86
2018-05-10T22:08:33.217Z,101488.02
2018-05-10T22:11:01.516Z,101484.98
2018-05-10T22:13:30.608Z,101490.83
2018-05-10T22:15:59.743Z,101500.95
2018-05-10T22:18:28.081Z,101503.12
2018-05-10T22:20:57.184Z,101498.66
2018-05-10T22:23:25.517Z,101489.33
2018-05-10T22:25:53.857Z,101488.09
2018-05-10T22:28:22.220Z,101488.70
2018-05-10T22:30:51.560Z,101483.69
2018-05-10T22:33:19.890Z,101490.06
2018-05-10T22:35:48.985Z,101495.11
2018-05-10T22:38:17.357Z,101497.11
2018-05-10T22:40:46.444Z,101502.95
2018-05-10T22:43:14.787Z,101501.70
2018-05-10T22:45:43.155Z,101504.34
2018-05-10T22:48:11.459Z,101505.68
2018-05-10T22:50:40.536Z,101507.38
2018-05-10T22:53:09.279Z,101513.36
2018-05-10T22:55:38.375Z,101513.63
2018-05-10T22:58:07.456Z,101514.48
2018-05-10T23:00:36.271Z,101515.83
2018-05-10T23:03:04.579Z,101523.72
2018-05-10T23:05:32.910Z,101519.74
2018-05-10T23:08:02.072Z,101529.44
2018-05-10T23:10:30.377Z,101529.88
2018-05-10T23:12:58.678Z,101536.89
2018-05-10T23:15:28.038Z,101540.49
2018-05-10T23:17:56.336Z,101545.03
2018-05-10T23:20:24.712Z,101548.09
2018-05-10T23:22:53.100Z,101548.13
2018-05-10T23:25:21.396Z,101556.74
2018-05-10T23:27:50.480Z,101559.63
2018-05-10T23:30:19.589Z,101558.86
2018-05-10T23:32:48.666Z,101555.28
2018-05-10T23:35:16.985Z,101563.13
2018-05-10T23:37:46.303Z,101567.18
2018-05-10T23:40:14.634Z,101562.84
2018-05-10T23:42:43.747Z,101574.65
2018-05-10T23:45:12.840Z,101574.80
2018-05-10T23:47:41.155Z,101562.51
2018-05-10T23:50:09.464Z,101562.48
2018-05-10T23:52:37.833Z,101561.94
2018-05-10T23:55:06.170Z,101555.53
2018-05-10T23:57:34.484Z,101564.94
